createdAt,value
2017-02-06T17:18:39.413Z,2.64
2017-02-06T17:19:40.085Z,2.8
2017-02-06T17:20:40.761Z,2.61
2017-02-06T17:21:41.468Z,2.75
2017-02-06T17:22:42.872Z,2.64
2017-02-06T17:23:43.549Z,2.74
2017-02-06T17:24:44.212Z,2.77
2017-02-06T17:25:44.889Z,2.68
2017-02-06T17:26:45.573Z,2.68
2017-02-06T17:27:47.985Z,2.67
2017-02-06T17:28:49.017Z,2.64
2017-02-06T17:29:49.688Z,2.67
2017-02-06T17:30:50.375Z,2.67
2017-02-06T17:31:51.115Z,2.71
2017-02-06T17:32:51.803Z,2.68
2017-02-06T17:33:52.475Z,2.64
2017-02-06T17:34:53.205Z,2.64
2017-02-06T17:35:53.894Z,2.68
2017-02-06T17:36:54.578Z,2.61
2017-02-06T17:37:55.293Z,2.64
2017-02-06T17:38:56.036Z,2.67
2017-02-06T17:39:56.741Z,2.69
2017-02-06T17:40:57.434Z,2.6
2017-02-06T17:41:58.150Z,2.64
2017-02-06T17:42:58.862Z,2.49
2017-02-06T17:43:59.681Z,2.56
2017-02-06T17:45:00.743Z,2.51
2017-02-06T17:46:01.494Z,2.54
2017-02-06T17:47:02.161Z,2.54
2017-02-06T17:48:02.842Z,2.49
2017-02-06T17:49:03.691Z,2.46
2017-02-06T17:50:04.374Z,2.43
2017-02-06T17:51:05.073Z,2.46
2017-02-06T17:52:05.771Z,2.49
2017-02-06T17:53:06.469Z,2.47
2017-02-06T17:54:07.152Z,2.43
2017-02-06T17:55:07.831Z,2.36
2017-02-06T17:56:08.547Z,2.38
2017-02-06T17:57:09.245Z,2.46
2017-02-06T17:58:09.930Z,2.39
2017-02-06T17:59:10.840Z,2.39
2017-02-06T18:00:11.568Z,2.32
2017-02-06T18:01:12.260Z,2.38
2017-02-06T18:02:12.960Z,2.36
2017-02-06T18:03:13.815Z,2.31
2017-02-06T18:04:14.493Z,2.33
2017-02-06T18:05:15.235Z,2.31
2017-02-06T18:06:15.909Z,2.24
2017-02-06T18:07:16.936Z,2.26
2017-02-06T18:08:17.621Z,2.25
2017-02-06T18:09:19.597Z,2.22
2017-02-06T18:10:21.731Z,2.28
2017-02-06T18:11:23.207Z,2.2
2017-02-06T18:12:23.912Z,2.26
2017-02-06T18:13:24.667Z,2.28
2017-02-06T18:14:25.331Z,2.22
2017-02-06T18:15:26.107Z,2.17
2017-02-06T18:16:26.911Z,2.22
2017-02-06T18:17:28.657Z,2.15
2017-02-06T18:18:30.235Z,2.17
2017-02-06T18:19:30.971Z,2.1
2017-02-06T18:20:31.651Z,2.1
2017-02-06T18:21:32.357Z,2.07
2017-02-06T18:22:33.065Z,2.13
2017-02-06T18:23:33.729Z,2.17
2017-02-06T18:24:34.437Z,2.11
2017-02-06T18:25:35.125Z,2.11
2017-02-06T18:26:35.824Z,2.1
2017-02-06T18:27:36.495Z,2.11
2017-02-06T18:28:37.187Z,2.11
2017-02-06T18:29:37.920Z,2.08
2017-02-06T18:30:38.593Z,2.1
2017-02-06T18:31:39.266Z,2
2017-02-06T18:32:40.092Z,2.1
2017-02-06T18:33:40.663Z,2.11
2017-02-06T18:34:41.451Z,2.07
2017-02-06T18:35:42.137Z,2.02
2017-02-06T18:36:42.805Z,1.99
2017-02-06T18:37:43.486Z,1.99
2017-02-06T18:38:44.176Z,1.94
2017-02-06T18:39:45.021Z,2.04
2017-02-06T18:40:45.706Z,1.94
2017-02-06T18:41:46.571Z,1.95
2017-02-06T18:42:47.260Z,2.02
2017-02-06T18:43:47.935Z,2.02
2017-02-06T18:44:48.707Z,2.02
2017-02-06T18:45:49.383Z,1.99
2017-02-06T18:46:50.055Z,1.95
2017-02-06T18:47:50.726Z,1.92
2017-02-06T18:48:51.399Z,1.91
2017-02-06T18:49:52.080Z,1.94
2017-02-06T18:50:52.740Z,1.95
2017-02-06T18:51:53.430Z,1.91
2017-02-06T18:52:54.135Z,1.89
2017-02-06T18:53:54.793Z,1.92
2017-02-06T18:54:55.465Z,1.95
2017-02-06T18:55:56.118Z,1.95
2017-02-06T18:56:56.789Z,1.94
2017-02-06T18:57:57.489Z,1.97
2017-02-06T18:58:58.186Z,1.91
2017-02-06T18:59:59.283Z,1.92
2017-02-06T19:01:00.267Z,1.97
2017-02-06T19:02:01.002Z,1.99
2017-02-06T19:03:01.686Z,1.89
2017-02-06T19:04:02.497Z,1.99
2017-02-06T19:05:03.619Z,1.94
2017-02-06T19:06:06.108Z,2.02
2017-02-06T19:07:06.812Z,1.95
2017-02-06T19:08:08.005Z,1.92
2017-02-06T19:09:08.735Z,1.95
2017-02-06T19:10:09.448Z,1.92
2017-02-06T19:11:10.146Z,1.88
2017-02-06T19:12:10.812Z,1.89
2017-02-06T19:13:11.478Z,1.99
2017-02-06T19:14:12.184Z,1.91
2017-02-06T19:15:12.978Z,1.92
2017-02-06T19:16:13.858Z,1.94
2017-02-06T19:17:14.606Z,1.92
2017-02-06T19:18:15.593Z,1.89
2017-02-06T19:19:16.258Z,1.91
2017-02-06T19:20:16.927Z,1.91
2017-02-06T19:21:17.600Z,1.97
2017-02-06T19:22:18.267Z,1.97
2017-02-06T19:23:19.126Z,1.91
2017-02-06T19:24:19.807Z,1.89
2017-02-06T19:25:20.750Z,1.91
2017-02-06T19:26:21.431Z,1.92
2017-02-06T19:27:22.105Z,1.97
2017-02-06T19:28:22.883Z,1.92
2017-02-06T19:29:23.560Z,1.92
2017-02-06T19:30:24.231Z,1.94
2017-02-06T19:31:24.962Z,1.87
2017-02-06T19:32:25.651Z,1.84
2017-02-06T19:33:26.353Z,1.89
2017-02-06T19:34:27.029Z,1.85
2017-02-06T19:35:27.705Z,1.89
2017-02-06T19:36:28.373Z,1.89
2017-02-06T19:37:29.075Z,1.92
2017-02-06T19:38:29.820Z,1.91
2017-02-06T19:39:30.652Z,1.89
2017-02-06T19:40:31.517Z,1.92
2017-02-06T19:41:32.216Z,1.95
2017-02-06T19:42:32.876Z,1.94
2017-02-06T19:43:33.555Z,1.92
2017-02-06T19:44:34.223Z,1.91
2017-02-06T19:45:34.914Z,1.92
2017-02-06T19:46:35.642Z,1.95
2017-02-06T19:47:36.317Z,1.99
2017-02-06T19:48:37.009Z,1.94
2017-02-06T19:49:37.681Z,1.89
2017-02-06T19:50:38.382Z,1.84
2017-02-06T19:51:39.060Z,1.92
2017-02-06T19:52:39.728Z,1.84
2017-02-06T19:53:40.497Z,1.89
2017-02-06T19:54:41.172Z,1.89
2017-02-06T19:55:41.861Z,1.74
2017-02-06T19:56:42.578Z,1.87
2017-02-06T19:57:43.252Z,1.85
2017-02-06T19:58:43.938Z,1.92
2017-02-06T19:59:44.629Z,1.91
2017-02-06T20:00:45.296Z,1.89
2017-02-06T20:01:45.964Z,1.92
2017-02-06T20:02:46.661Z,1.91
2017-02-06T20:03:47.346Z,1.97
2017-02-06T20:04:48.021Z,1.92
2017-02-06T20:05:48.695Z,1.99
2017-02-06T20:06:49.374Z,1.92
2017-02-06T20:07:50.095Z,1.92
2017-02-06T20:08:50.786Z,1.91
2017-02-06T20:09:51.495Z,1.94
2017-02-06T20:10:52.305Z,1.95
2017-02-06T20:11:53.093Z,1.95
2017-02-06T20:12:53.943Z,1.89
2017-02-06T20:13:54.819Z,1.91
2017-02-06T20:14:56.070Z,2.1
2017-02-06T20:15:56.755Z,2.1
2017-02-06T20:16:57.832Z,2.08
2017-02-06T20:17:58.596Z,2.11
2017-02-06T20:19:00.018Z,1.99
2017-02-06T20:20:01.086Z,2.04
2017-02-06T20:21:02.128Z,2
2017-02-06T20:22:03.296Z,2.08
2017-02-06T20:23:03.977Z,2.08
2017-02-06T20:24:05.067Z,2
2017-02-06T20:25:05.833Z,1.99
2017-02-06T20:26:07.113Z,2.07
2017-02-06T20:27:08.922Z,2.13
2017-02-06T20:28:09.729Z,2.1
2017-02-06T20:29:10.559Z,2.13
2017-02-06T20:30:11.590Z,2.15
2017-02-06T20:31:12.308Z,2.13
2017-02-06T20:32:13.027Z,2.11
2017-02-06T20:33:14.012Z,2.04
2017-02-06T20:34:14.996Z,2.07
2017-02-06T20:35:15.864Z,1.97
2017-02-06T20:36:16.652Z,2.1
2017-02-06T20:37:17.375Z,2.1
2017-02-06T20:38:18.555Z,2.08
2017-02-06T20:39:19.305Z,2.13
2017-02-06T20:40:20.393Z,2.15
2017-02-06T20:41:21.238Z,2.08
2017-02-06T20:42:22.450Z,2.18
2017-02-06T20:43:24.470Z,2.08
2017-02-06T20:44:26.074Z,2.22
2017-02-06T20:45:27.383Z,2.22
2017-02-06T20:46:29.650Z,2.24
2017-02-06T20:47:30.392Z,2.22
2017-02-06T20:48:31.733Z,2.17
2017-02-06T20:49:32.413Z,2.18
2017-02-06T20:50:33.172Z,2.28
2017-02-06T20:51:33.843Z,2.22
2017-02-06T20:52:34.556Z,2.24
2017-02-06T20:53:35.371Z,2.24
2017-02-06T20:54:36.114Z,2.24
2017-02-06T20:55:36.843Z,2.31
2017-02-06T20:56:37.644Z,2.26
2017-02-06T20:57:38.356Z,2.26
2017-02-06T20:58:39.160Z,2.22
2017-02-06T20:59:39.881Z,2.26
2017-02-06T21:00:40.624Z,2.26
2017-02-06T21:01:41.455Z,2.28
2017-02-06T21:02:42.161Z,2.29
2017-02-06T21:03:42.859Z,2.29
2017-02-06T21:04:43.549Z,2.35
2017-02-06T21:05:44.227Z,2.35
2017-02-06T21:06:44.942Z,2.29
2017-02-06T21:07:45.630Z,2.25
2017-02-06T21:08:46.323Z,2.28
2017-02-06T21:09:47.096Z,2.26
2017-02-06T21:10:47.847Z,2.29
2017-02-06T21:11:48.737Z,2.32
2017-02-06T21:12:49.443Z,2.36
2017-02-06T21:13:50.151Z,2.25
2017-02-06T21:14:50.839Z,2.2
2017-02-06T21:15:51.617Z,2.22
2017-02-06T21:16:52.476Z,2.26
2017-02-06T21:17:53.247Z,2.28
2017-02-06T21:18:53.971Z,2.29
2017-02-06T21:19:54.662Z,2.25
2017-02-06T21:20:55.352Z,2.22
2017-02-06T21:21:56.040Z,2.29
2017-02-06T21:22:56.737Z,2.17
2017-02-06T21:23:57.478Z,2.15
2017-02-06T21:24:58.175Z,2.22
2017-02-06T21:25:59.046Z,2.22
2017-02-06T21:26:59.673Z,2.22
2017-02-06T21:28:00.365Z,2.25
2017-02-06T21:29:01.058Z,2.25
2017-02-06T21:30:01.795Z,2.22
2017-02-06T21:31:02.593Z,2.24
2017-02-06T21:32:03.192Z,2.17
2017-02-06T21:33:03.895Z,2.17
2017-02-06T21:34:04.697Z,2.22
2017-02-06T21:35:05.474Z,2.18
2017-02-06T21:36:07.043Z,2.18
2017-02-06T21:37:07.550Z,2.11
2017-02-06T21:38:08.320Z,2.25
2017-02-06T21:39:08.987Z,2.2
2017-02-06T21:40:09.726Z,2.18
2017-02-06T21:41:10.713Z,2.22
2017-02-06T21:42:11.395Z,2.18
2017-02-06T21:43:12.071Z,2.24
2017-02-06T21:44:12.770Z,2.28
2017-02-06T21:45:13.548Z,2.29
2017-02-06T21:46:14.298Z,2.24
2017-02-06T21:47:14.986Z,2.22
2017-02-06T21:48:15.660Z,2.17
2017-02-06T21:49:16.376Z,2.17
2017-02-06T21:50:17.097Z,2.15
2017-02-06T21:51:17.789Z,2.17
2017-02-06T21:52:18.510Z,2.25
2017-02-06T21:53:19.183Z,2.2
2017-02-06T21:54:19.873Z,2.11
2017-02-06T21:55:20.576Z,2.22
2017-02-06T21:56:21.282Z,2.26
2017-02-06T21:57:21.944Z,2.25
2017-02-06T21:58:22.623Z,2.24
2017-02-06T21:59:23.366Z,2.25
2017-02-06T22:00:24.041Z,2.24
2017-02-06T22:01:24.746Z,2.25
2017-02-06T22:02:25.418Z,2.25
2017-02-06T22:03:26.091Z,2.28
2017-02-06T22:04:26.803Z,2.24
2017-02-06T22:05:27.556Z,2.26
2017-02-06T22:06:28.322Z,2.22
2017-02-06T22:07:29.008Z,2.22
2017-02-06T22:08:29.716Z,2.28
2017-02-06T22:09:30.405Z,2.28
2017-02-06T22:10:31.128Z,2.31
2017-02-06T22:11:31.868Z,2.35
2017-02-06T22:12:32.543Z,2.31
2017-02-06T22:13:33.229Z,2.29
2017-02-06T22:14:33.997Z,2.26
2017-02-06T22:15:34.794Z,2.33
2017-02-06T22:16:35.440Z,2.36
2017-02-06T22:17:36.156Z,2.38
2017-02-06T22:18:36.902Z,2.36
2017-02-06T22:19:37.607Z,2.26
2017-02-06T22:20:38.290Z,2.17
2017-02-06T22:21:39.192Z,2.25
2017-02-06T22:22:39.906Z,2.18
2017-02-06T22:23:40.557Z,2.22
2017-02-06T22:24:41.230Z,2.22
2017-02-06T22:25:41.971Z,2.29
2017-02-06T22:26:42.711Z,2.28
2017-02-06T22:27:43.544Z,2.25
2017-02-06T22:28:44.267Z,2.31
2017-02-06T22:29:44.964Z,2.26
2017-02-06T22:30:45.686Z,2.26
2017-02-06T22:31:46.445Z,2.18
2017-02-06T22:32:47.367Z,2.25
2017-02-06T22:33:48.155Z,2.25
2017-02-06T22:34:48.868Z,2.28
2017-02-06T22:35:49.603Z,2.15
2017-02-06T22:36:50.232Z,2.18
2017-02-06T22:37:50.908Z,2.13
2017-02-06T22:38:51.646Z,2.13
2017-02-06T22:39:52.324Z,2.18
2017-02-06T22:40:53.031Z,2.1
2017-02-06T22:41:53.711Z,2.08
2017-02-06T22:42:54.393Z,2.14
2017-02-06T22:43:55.076Z,2.1
2017-02-06T22:44:55.854Z,2.08
2017-02-06T22:45:56.621Z,2.08
2017-02-06T22:46:57.293Z,2.11
2017-02-06T22:47:58.152Z,2.1
2017-02-06T22:48:58.946Z,2.07
2017-02-06T22:49:59.781Z,2.08
2017-02-06T22:51:00.844Z,2.15
2017-02-06T22:52:01.374Z,2.13
2017-02-06T22:53:02.225Z,2.1
2017-02-06T22:54:02.981Z,2.11
2017-02-06T22:55:03.652Z,2.08
2017-02-06T22:56:04.488Z,2.1
2017-02-06T22:57:05.253Z,2.1
2017-02-06T22:58:06.049Z,2.08
2017-02-06T22:59:07.016Z,2.1
2017-02-06T23:00:07.679Z,2.08
2017-02-06T23:01:08.472Z,2.08
2017-02-06T23:02:09.358Z,2.14
2017-02-06T23:03:10.181Z,2.17
2017-02-06T23:04:10.835Z,2.22
2017-02-06T23:05:11.687Z,2.17
2017-02-06T23:06:12.350Z,2.2
2017-02-06T23:07:13.033Z,2.17
2017-02-06T23:08:13.705Z,2.2
2017-02-06T23:09:14.372Z,2.15
2017-02-06T23:10:15.318Z,2.08
2017-02-06T23:11:16.445Z,2.13
2017-02-06T23:12:17.187Z,2.11
2017-02-06T23:13:17.900Z,2.13
2017-02-06T23:14:18.678Z,2.17
2017-02-06T23:15:19.392Z,2.15
2017-02-06T23:16:20.177Z,2.15
2017-02-06T23:17:20.867Z,2.17
2017-02-06T23:18:21.700Z,2.2
2017-02-06T23:19:22.703Z,2.26
2017-02-06T23:20:23.645Z,2.22
2017-02-06T23:21:24.726Z,2.2
2017-02-06T23:22:25.690Z,2.31
2017-02-06T23:23:27.085Z,2.24
2017-02-06T23:24:27.796Z,2.18
2017-02-06T23:25:28.874Z,2.25
2017-02-06T23:26:29.831Z,2.2
2017-02-06T23:27:30.802Z,2.25
2017-02-06T23:28:32.371Z,2.2
2017-02-06T23:29:33.110Z,2.24
2017-02-06T23:30:33.817Z,2.18
2017-02-06T23:31:34.652Z,2.08
2017-02-06T23:32:35.491Z,2.1
2017-02-06T23:33:36.427Z,2.08
2017-02-06T23:34:37.089Z,1.97
2017-02-06T23:35:38.664Z,2.02
2017-02-06T23:36:39.868Z,2.08
2017-02-06T23:37:40.590Z,2.13
2017-02-06T23:38:41.499Z,2.13
2017-02-06T23:39:42.572Z,2.1
2017-02-06T23:40:43.300Z,2.07
2017-02-06T23:41:44.015Z,2.06
2017-02-06T23:42:44.782Z,2
2017-02-06T23:43:45.681Z,1.91
2017-02-06T23:44:46.587Z,2.07
2017-02-06T23:45:47.255Z,2.04
2017-02-06T23:46:47.964Z,2.11
2017-02-06T23:47:48.733Z,2.11
2017-02-06T23:48:49.478Z,2.07
2017-02-06T23:49:50.182Z,1.99
2017-02-06T23:50:50.891Z,1.92
2017-02-06T23:51:51.570Z,2.02
2017-02-06T23:52:52.252Z,2.04
2017-02-06T23:53:53.201Z,2
2017-02-06T23:54:53.893Z,1.92
2017-02-06T23:55:54.693Z,1.97
2017-02-06T23:56:55.697Z,1.91
2017-02-06T23:57:56.333Z,1.99
2017-02-06T23:58:57.105Z,2
2017-02-06T23:59:57.904Z,1.92
